Valinhos, Brazil
Current Conditions -  °F | °C
As of 8:00 PM on Sunday 25 Jan 2015 (Local Time) from SBGW Reporting Station
Scattered Clouds Scattered Clouds  
Wind Chill: 79°   Ceiling: Unl
Heat Index: 80°   Visibility: 6mi
Dew Point: 61°   Wind: 2mph
Humidity: 54%   Direction: NA
Pressure: 29.91"   Gusts: NA
Location:  21.93°S, 45.18°W
Report Text: SBGW 252200Z VRB02KT 9999 SCT030 FEW035TCU 26/16 Q1013
Loading
Personal Weather Stations






























Interactive Weather Map New forecast layout! Learn more

10-Day Weather Forecast

Advertisements
Track Severe Weather on mobile